createdAt,value
2019-03-25T00:01:19.082Z,37.27
2019-03-25T00:03:49.119Z,38.47
2019-03-25T00:06:19.060Z,37.10
2019-03-25T00:08:49.028Z,35.87
2019-03-25T00:11:20.079Z,38.77
2019-03-25T00:13:50.128Z,37.57
2019-03-25T00:16:20.080Z,36.80
2019-03-25T00:18:50.105Z,37.67
2019-03-25T00:21:20.051Z,38.27
2019-03-25T00:23:50.028Z,38.13
2019-03-25T00:26:20.068Z,36.33
2019-03-25T00:28:50.378Z,38.87
2019-03-25T00:31:20.360Z,39.47
2019-03-25T00:33:51.292Z,37.80
2019-03-25T00:36:21.265Z,38.20
2019-03-25T00:38:51.228Z,36.83
2019-03-25T00:41:21.478Z,36.67
2019-03-25T00:43:51.452Z,37.60
2019-03-25T00:46:21.410Z,37.90
2019-03-25T00:48:51.377Z,38.10
2019-03-25T00:51:21.349Z,40.30
2019-03-25T00:53:51.301Z,39.57
2019-03-25T00:56:21.272Z,37.97
2019-03-25T00:58:51.298Z,37.80
2019-03-25T01:01:21.550Z,39.10
2019-03-25T01:03:51.516Z,37.57
2019-03-25T01:06:21.479Z,38.83
2019-03-25T01:08:51.464Z,38.87
2019-03-25T01:11:21.445Z,39.63
2019-03-25T01:13:51.409Z,41.07
2019-03-25T01:16:21.381Z,40.87
2019-03-25T01:18:51.341Z,39.37
2019-03-25T01:21:21.289Z,39.53
2019-03-25T01:23:51.246Z,39.17
2019-03-25T01:26:22.282Z,40.70
2019-03-25T01:28:52.357Z,39.93
2019-03-25T01:31:23.442Z,39.03
2019-03-25T01:33:53.398Z,36.83
2019-03-25T01:36:24.539Z,40.00
2019-03-25T01:38:54.498Z,39.97
2019-03-25T01:41:24.467Z,40.67
2019-03-25T01:43:54.450Z,37.73
2019-03-25T01:46:24.551Z,37.73
2019-03-25T01:48:54.541Z,37.27
2019-03-25T01:51:24.497Z,36.50
2019-03-25T01:53:54.471Z,35.83
2019-03-25T01:56:24.441Z,37.37
2019-03-25T01:58:55.471Z,38.00
2019-03-25T02:01:25.521Z,38.00
2019-03-25T02:03:55.564Z,38.27
2019-03-25T02:06:25.531Z,37.73
2019-03-25T02:08:55.507Z,38.03
2019-03-25T02:11:25.560Z,37.77
2019-03-25T02:13:55.516Z,38.83
2019-03-25T02:16:26.533Z,38.13
2019-03-25T02:18:56.573Z,38.90
2019-03-25T02:21:26.586Z,39.93
2019-03-25T02:23:56.597Z,38.10
2019-03-25T02:26:26.585Z,38.37
2019-03-25T02:28:56.556Z,37.47
2019-03-25T02:31:26.521Z,36.60
2019-03-25T02:33:56.562Z,37.63
2019-03-25T02:36:26.529Z,38.00
2019-03-25T02:38:56.570Z,38.67
2019-03-25T02:41:26.518Z,37.20
2019-03-25T02:43:56.496Z,37.90
2019-03-25T02:46:26.483Z,37.97
2019-03-25T02:48:56.530Z,38.53
2019-03-25T02:51:26.511Z,38.23
2019-03-25T02:53:56.485Z,38.90
2019-03-25T02:56:26.867Z,39.40
2019-03-25T02:58:56.834Z,39.60
2019-03-25T03:01:26.829Z,40.07
2019-03-25T03:03:56.790Z,37.93
2019-03-25T03:06:26.803Z,39.37
2019-03-25T03:08:56.804Z,39.63
2019-03-25T03:11:27.217Z,38.53
2019-03-25T03:13:57.178Z,38.47
2019-03-25T03:16:27.228Z,39.47
2019-03-25T03:18:57.214Z,39.87
2019-03-25T03:21:27.267Z,38.73
2019-03-25T03:23:57.276Z,39.13
2019-03-25T03:26:27.337Z,37.90
2019-03-25T03:28:57.318Z,39.13
2019-03-25T03:31:27.683Z,38.30
2019-03-25T03:33:57.682Z,37.73
2019-03-25T03:36:27.982Z,39.60
2019-03-25T03:38:58.047Z,39.90
2019-03-25T03:41:28.619Z,40.40
2019-03-25T03:44:00.636Z,41.40
2019-03-25T03:46:30.307Z,40.97
2019-03-25T03:49:00.395Z,39.13
2019-03-25T03:51:30.362Z,39.27
2019-03-25T03:54:00.820Z,40.23
2019-03-25T03:56:31.678Z,41.27
2019-03-25T03:59:02.142Z,41.27
2019-03-25T04:01:32.142Z,41.03
2019-03-25T04:04:02.546Z,39.03
2019-03-25T04:06:32.960Z,42.07
2019-03-25T04:09:04.441Z,42.33
2019-03-25T04:11:34.557Z,41.53
2019-03-25T04:14:04.891Z,40.77
2019-03-25T04:16:34.866Z,43.73
2019-03-25T04:19:04.843Z,40.73
2019-03-25T04:21:34.800Z,41.97
2019-03-25T04:24:04.786Z,42.10
2019-03-25T04:26:34.867Z,41.40
2019-03-25T04:29:05.227Z,41.10
2019-03-25T04:31:35.181Z,42.63
2019-03-25T04:34:05.206Z,42.77
2019-03-25T04:36:35.681Z,40.80
2019-03-25T04:39:06.646Z,43.37
2019-03-25T04:41:36.641Z,42.00
2019-03-25T04:44:06.601Z,44.07
2019-03-25T04:46:36.899Z,44.43
2019-03-25T04:49:06.865Z,45.03
2019-03-25T04:51:36.925Z,44.53
2019-03-25T04:54:06.900Z,43.93
2019-03-25T04:56:40.058Z,42.50
2019-03-25T04:59:09.622Z,42.23
2019-03-25T05:01:39.584Z,43.07
2019-03-25T05:04:09.559Z,43.33
2019-03-25T05:06:39.512Z,44.17
2019-03-25T05:09:09.480Z,44.27
2019-03-25T05:11:39.475Z,44.17
2019-03-25T05:14:09.429Z,43.60
2019-03-25T05:16:39.633Z,44.30
2019-03-25T05:19:09.596Z,42.57
2019-03-25T05:21:39.567Z,43.77
2019-03-25T05:24:09.895Z,42.97
2019-03-25T05:26:50.235Z,42.13
2019-03-25T05:29:12.640Z,44.40
2019-03-25T05:31:42.608Z,43.23
2019-03-25T05:34:12.596Z,43.20
2019-03-25T05:36:42.908Z,43.97
2019-03-25T05:39:12.873Z,44.30
2019-03-25T05:41:42.908Z,43.30
2019-03-25T05:44:12.868Z,44.57
2019-03-25T05:46:43.112Z,43.80
2019-03-25T05:49:13.307Z,44.40
2019-03-25T05:51:45.687Z,43.93
2019-03-25T05:54:15.993Z,43.60
2019-03-25T05:56:45.954Z,43.13
2019-03-25T05:59:16.456Z,43.83
2019-03-25T06:01:46.896Z,42.40
2019-03-25T06:04:17.245Z,42.57
2019-03-25T06:06:47.212Z,43.37
2019-03-25T06:09:18.796Z,42.87
2019-03-25T06:11:48.705Z,42.97
2019-03-25T06:14:18.671Z,42.70
2019-03-25T06:16:48.758Z,40.97
2019-03-25T06:19:19.016Z,43.03
2019-03-25T06:21:48.949Z,42.33
2019-03-25T06:24:18.985Z,42.57
2019-03-25T06:26:49.061Z,41.57
2019-03-25T06:29:19.094Z,41.17
2019-03-25T06:31:49.056Z,40.20
2019-03-25T06:34:19.025Z,41.63
2019-03-25T06:36:48.962Z,42.43
2019-03-25T06:39:19.312Z,40.40
2019-03-25T06:41:49.268Z,42.03
2019-03-25T06:44:20.296Z,40.03
2019-03-25T06:46:50.329Z,39.43
2019-03-25T06:49:20.293Z,38.67
